sensor_id;sensor_type;location;lat;lon;timestamp;P1;durP1;ratioP1;P2;durP2;ratioP2
74074;SDS011;62428;51.412;5.432;2023-07-30T00:01:24;6.97;;;1.63;;
74074;SDS011;62428;51.412;5.432;2023-07-30T00:03:49;6.67;;;1.10;;
74074;SDS011;62428;51.412;5.432;2023-07-30T00:06:15;7.07;;;1.50;;
74074;SDS011;62428;51.412;5.432;2023-07-30T00:08:40;5.13;;;1.50;;
74074;SDS011;62428;51.412;5.432;2023-07-30T00:11:05;7.17;;;1.60;;
74074;SDS011;62428;51.412;5.432;2023-07-30T00:13:31;6.17;;;2.03;;
74074;SDS011;62428;51.412;5.432;2023-07-30T00:15:56;8.63;;;1.53;;
74074;SDS011;62428;51.412;5.432;2023-07-30T00:18:21;12.67;;;1.63;;
74074;SDS011;62428;51.412;5.432;2023-07-30T00:20:47;3.67;;;1.50;;
74074;SDS011;62428;51.412;5.432;2023-07-30T00:23:12;6.40;;;1.40;;
74074;SDS011;62428;51.412;5.432;2023-07-30T00:25:37;4.20;;;1.60;;
74074;SDS011;62428;51.412;5.432;2023-07-30T00:28:03;6.03;;;1.50;;
74074;SDS011;62428;51.412;5.432;2023-07-30T00:30:28;6.80;;;1.60;;
74074;SDS011;62428;51.412;5.432;2023-07-30T00:32:54;7.38;;;1.42;;
74074;SDS011;62428;51.412;5.432;2023-07-30T00:35:19;8.40;;;1.40;;
74074;SDS011;62428;51.412;5.432;2023-07-30T00:37:47;7.30;;;1.50;;
74074;SDS011;62428;51.412;5.432;2023-07-30T00:40:12;6.13;;;1.60;;
74074;SDS011;62428;51.412;5.432;2023-07-30T00:42:37;4.47;;;1.10;;
74074;SDS011;62428;51.412;5.432;2023-07-30T00:45:03;8.70;;;1.80;;
74074;SDS011;62428;51.412;5.432;2023-07-30T00:47:29;4.63;;;1.70;;
74074;SDS011;62428;51.412;5.432;2023-07-30T00:49:55;7.47;;;1.40;;
74074;SDS011;62428;51.412;5.432;2023-07-30T00:52:21;4.65;;;1.30;;
74074;SDS011;62428;51.412;5.432;2023-07-30T00:54:48;8.07;;;1.85;;
74074;SDS011;62428;51.412;5.432;2023-07-30T00:57:15;12.90;;;1.80;;
74074;SDS011;62428;51.412;5.432;2023-07-30T00:59:41;6.95;;;1.60;;
74074;SDS011;62428;51.412;5.432;2023-07-30T01:02:08;7.43;;;1.48;;
74074;SDS011;62428;51.412;5.432;2023-07-30T01:04:33;7.80;;;1.40;;
74074;SDS011;62428;51.412;5.432;2023-07-30T01:06:59;5.75;;;1.10;;
74074;SDS011;62428;51.412;5.432;2023-07-30T01:09:24;6.43;;;1.30;;
74074;SDS011;62428;51.412;5.432;2023-07-30T01:11:51;5.77;;;1.30;;
74074;SDS011;62428;51.412;5.432;2023-07-30T01:14:18;7.38;;;1.65;;
74074;SDS011;62428;51.412;5.432;2023-07-30T01:16:46;7.43;;;1.38;;
74074;SDS011;62428;51.412;5.432;2023-07-30T01:19:11;5.27;;;1.67;;
74074;SDS011;62428;51.412;5.432;2023-07-30T01:21:36;4.70;;;1.30;;
74074;SDS011;62428;51.412;5.432;2023-07-30T01:24:02;5.93;;;1.48;;
74074;SDS011;62428;51.412;5.432;2023-07-30T01:26:37;8.93;;;1.50;;
74074;SDS011;62428;51.412;5.432;2023-07-30T01:29:09;4.85;;;1.38;;
74074;SDS011;62428;51.412;5.432;2023-07-30T01:31:40;7.03;;;1.73;;
74074;SDS011;62428;51.412;5.432;2023-07-30T01:34:06;6.38;;;1.30;;
74074;SDS011;62428;51.412;5.432;2023-07-30T01:36:34;5.47;;;1.48;;
74074;SDS011;62428;51.412;5.432;2023-07-30T01:39:00;7.60;;;1.50;;
74074;SDS011;62428;51.412;5.432;2023-07-30T01:41:26;6.43;;;1.17;;
74074;SDS011;62428;51.412;5.432;2023-07-30T01:43:52;6.18;;;1.48;;
74074;SDS011;62428;51.412;5.432;2023-07-30T01:46:18;7.07;;;1.13;;
74074;SDS011;62428;51.412;5.432;2023-07-30T01:48:43;6.17;;;1.10;;
74074;SDS011;62428;51.412;5.432;2023-07-30T01:51:09;11.53;;;1.67;;
74074;SDS011;62428;51.412;5.432;2023-07-30T01:53:34;7.80;;;1.53;;
74074;SDS011;62428;51.412;5.432;2023-07-30T01:55:59;6.67;;;1.37;;
74074;SDS011;62428;51.412;5.432;2023-07-30T01:58:26;10.68;;;1.42;;
74074;SDS011;62428;51.412;5.432;2023-07-30T02:00:51;7.53;;;1.63;;
74074;SDS011;62428;51.412;5.432;2023-07-30T02:03:17;8.43;;;1.93;;
74074;SDS011;62428;51.412;5.432;2023-07-30T02:05:42;8.53;;;1.53;;
74074;SDS011;62428;51.412;5.432;2023-07-30T02:08:07;5.23;;;1.50;;
74074;SDS011;62428;51.412;5.432;2023-07-30T02:10:33;6.90;;;1.25;;
74074;SDS011;62428;51.412;5.432;2023-07-30T02:12:58;7.43;;;1.67;;
74074;SDS011;62428;51.412;5.432;2023-07-30T02:15:24;9.77;;;2.13;;
74074;SDS011;62428;51.412;5.432;2023-07-30T02:17:49;12.25;;;1.90;;
74074;SDS011;62428;51.412;5.432;2023-07-30T02:20:15;8.63;;;2.07;;
74074;SDS011;62428;51.412;5.432;2023-07-30T02:22:40;9.37;;;1.63;;
74074;SDS011;62428;51.412;5.432;2023-07-30T02:25:06;9.63;;;1.67;;
74074;SDS011;62428;51.412;5.432;2023-07-30T02:27:31;6.20;;;1.40;;
74074;SDS011;62428;51.412;5.432;2023-07-30T02:29:57;6.53;;;1.67;;
74074;SDS011;62428;51.412;5.432;2023-07-30T02:32:22;7.23;;;1.43;;
74074;SDS011;62428;51.412;5.432;2023-07-30T02:34:47;8.10;;;1.40;;
74074;SDS011;62428;51.412;5.432;2023-07-30T02:37:13;8.50;;;1.57;;
74074;SDS011;62428;51.412;5.432;2023-07-30T02:39:38;7.25;;;1.50;;
74074;SDS011;62428;51.412;5.432;2023-07-30T02:42:04;12.00;;;1.73;;
74074;SDS011;62428;51.412;5.432;2023-07-30T02:44:29;7.57;;;1.50;;
74074;SDS011;62428;51.412;5.432;2023-07-30T02:46:55;7.43;;;1.97;;
74074;SDS011;62428;51.412;5.432;2023-07-30T02:49:20;6.75;;;1.38;;
74074;SDS011;62428;51.412;5.432;2023-07-30T02:51:46;6.73;;;1.37;;
74074;SDS011;62428;51.412;5.432;2023-07-30T02:54:13;6.13;;;1.40;;
74074;SDS011;62428;51.412;5.432;2023-07-30T02:56:39;6.20;;;1.50;;
74074;SDS011;62428;51.412;5.432;2023-07-30T02:59:05;11.35;;;1.85;;
74074;SDS011;62428;51.412;5.432;2023-07-30T03:01:30;8.03;;;1.50;;
74074;SDS011;62428;51.412;5.432;2023-07-30T03:03:55;11.93;;;2.20;;
74074;SDS011;62428;51.412;5.432;2023-07-30T03:06:21;10.23;;;1.90;;
74074;SDS011;62428;51.412;5.432;2023-07-30T03:08:46;10.77;;;2.00;;
74074;SDS011;62428;51.412;5.432;2023-07-30T03:11:12;15.10;;;1.90;;
74074;SDS011;62428;51.412;5.432;2023-07-30T03:13:38;8.52;;;2.17;;
74074;SDS011;62428;51.412;5.432;2023-07-30T03:16:04;14.38;;;1.90;;
74074;SDS011;62428;51.412;5.432;2023-07-30T03:18:29;11.10;;;1.67;;
74074;SDS011;62428;51.412;5.432;2023-07-30T03:20:59;10.23;;;1.70;;
74074;SDS011;62428;51.412;5.432;2023-07-30T03:23:25;12.05;;;2.20;;
74074;SDS011;62428;51.412;5.432;2023-07-30T03:25:51;8.27;;;1.42;;
74074;SDS011;62428;51.412;5.432;2023-07-30T03:28:16;5.87;;;1.80;;
74074;SDS011;62428;51.412;5.432;2023-07-30T03:30:42;10.93;;;1.50;;
74074;SDS011;62428;51.412;5.432;2023-07-30T03:33:07;7.47;;;1.47;;
74074;SDS011;62428;51.412;5.432;2023-07-30T03:35:32;5.90;;;1.63;;
74074;SDS011;62428;51.412;5.432;2023-07-30T03:37:58;8.45;;;1.38;;
74074;SDS011;62428;51.412;5.432;2023-07-30T03:40:24;5.00;;;1.50;;
74074;SDS011;62428;51.412;5.432;2023-07-30T03:42:49;8.75;;;1.40;;
74074;SDS011;62428;51.412;5.432;2023-07-30T03:45:15;10.00;;;1.70;;
74074;SDS011;62428;51.412;5.432;2023-07-30T03:47:40;7.77;;;1.50;;
74074;SDS011;62428;51.412;5.432;2023-07-30T03:50:06;13.13;;;1.93;;
74074;SDS011;62428;51.412;5.432;2023-07-30T03:52:31;9.98;;;1.77;;
74074;SDS011;62428;51.412;5.432;2023-07-30T03:54:56;8.53;;;1.57;;
74074;SDS011;62428;51.412;5.432;2023-07-30T03:57:22;10.43;;;1.60;;
74074;SDS011;62428;51.412;5.432;2023-07-30T03:59:47;8.50;;;1.67;;
74074;SDS011;62428;51.412;5.432;2023-07-30T04:02:13;8.13;;;1.80;;
74074;SDS011;62428;51.412;5.432;2023-07-30T04:04:40;8.75;;;1.73;;
74074;SDS011;62428;51.412;5.432;2023-07-30T04:07:09;10.30;;;1.80;;
74074;SDS011;62428;51.412;5.432;2023-07-30T04:09:35;9.50;;;1.90;;
74074;SDS011;62428;51.412;5.432;2023-07-30T04:12:00;15.43;;;2.13;;
74074;SDS011;62428;51.412;5.432;2023-07-30T04:14:25;9.35;;;2.13;;
74074;SDS011;62428;51.412;5.432;2023-07-30T04:16:51;9.30;;;2.40;;
74074;SDS011;62428;51.412;5.432;2023-07-30T04:19:16;12.10;;;2.50;;
74074;SDS011;62428;51.412;5.432;2023-07-30T04:21:41;10.13;;;2.70;;
74074;SDS011;62428;51.412;5.432;2023-07-30T04:24:07;10.87;;;2.13;;
74074;SDS011;62428;51.412;5.432;2023-07-30T04:26:32;16.13;;;2.80;;
74074;SDS011;62428;51.412;5.432;2023-07-30T04:28:57;14.37;;;2.93;;
74074;SDS011;62428;51.412;5.432;2023-07-30T04:31:23;11.63;;;2.00;;
74074;SDS011;62428;51.412;5.432;2023-07-30T04:33:48;11.47;;;3.10;;
74074;SDS011;62428;51.412;5.432;2023-07-30T04:36:13;18.90;;;2.85;;
74074;SDS011;62428;51.412;5.432;2023-07-30T04:38:39;10.07;;;2.30;;
74074;SDS011;62428;51.412;5.432;2023-07-30T04:41:04;11.97;;;2.23;;
74074;SDS011;62428;51.412;5.432;2023-07-30T04:43:29;13.90;;;2.10;;
74074;SDS011;62428;51.412;5.432;2023-07-30T04:45:55;8.57;;;2.00;;
74074;SDS011;62428;51.412;5.432;2023-07-30T04:48:20;9.63;;;2.30;;
74074;SDS011;62428;51.412;5.432;2023-07-30T04:50:45;11.23;;;2.20;;
74074;SDS011;62428;51.412;5.432;2023-07-30T04:53:11;14.35;;;2.25;;
74074;SDS011;62428;51.412;5.432;2023-07-30T04:55:36;10.47;;;2.57;;
74074;SDS011;62428;51.412;5.432;2023-07-30T04:58:02;11.17;;;2.20;;
74074;SDS011;62428;51.412;5.432;2023-07-30T05:00:28;17.42;;;2.42;;
74074;SDS011;62428;51.412;5.432;2023-07-30T05:02:53;14.13;;;2.40;;
74074;SDS011;62428;51.412;5.432;2023-07-30T05:05:19;11.53;;;2.20;;
74074;SDS011;62428;51.412;5.432;2023-07-30T05:07:44;11.03;;;2.30;;
74074;SDS011;62428;51.412;5.432;2023-07-30T05:10:09;15.63;;;2.00;;
74074;SDS011;62428;51.412;5.432;2023-07-30T05:12:36;26.83;;;2.85;;
74074;SDS011;62428;51.412;5.432;2023-07-30T05:15:02;16.98;;;3.47;;
74074;SDS011;62428;51.412;5.432;2023-07-30T05:17:28;11.80;;;2.42;;
74074;SDS011;62428;51.412;5.432;2023-07-30T05:19:54;17.77;;;2.50;;
74074;SDS011;62428;51.412;5.432;2023-07-30T05:22:19;17.33;;;2.43;;
74074;SDS011;62428;51.412;5.432;2023-07-30T05:24:45;13.18;;;2.65;;
74074;SDS011;62428;51.412;5.432;2023-07-30T05:27:10;12.53;;;2.23;;
74074;SDS011;62428;51.412;5.432;2023-07-30T05:29:35;10.37;;;2.20;;
74074;SDS011;62428;51.412;5.432;2023-07-30T05:32:01;14.60;;;2.20;;
74074;SDS011;62428;51.412;5.432;2023-07-30T05:34:26;17.13;;;2.90;;
74074;SDS011;62428;51.412;5.432;2023-07-30T05:36:52;14.00;;;2.00;;
74074;SDS011;62428;51.412;5.432;2023-07-30T05:39:17;21.90;;;2.20;;
74074;SDS011;62428;51.412;5.432;2023-07-30T05:41:42;23.20;;;3.17;;
74074;SDS011;62428;51.412;5.432;2023-07-30T05:44:08;14.27;;;2.50;;
74074;SDS011;62428;51.412;5.432;2023-07-30T05:46:33;11.23;;;2.60;;
74074;SDS011;62428;51.412;5.432;2023-07-30T05:48:58;18.10;;;2.77;;
74074;SDS011;62428;51.412;5.432;2023-07-30T05:51:24;12.13;;;2.10;;
74074;SDS011;62428;51.412;5.432;2023-07-30T05:53:49;13.15;;;2.20;;
74074;SDS011;62428;51.412;5.432;2023-07-30T05:56:14;10.97;;;2.10;;
74074;SDS011;62428;51.412;5.432;2023-07-30T05:58:43;13.18;;;2.28;;
74074;SDS011;62428;51.412;5.432;2023-07-30T06:01:09;12.47;;;2.17;;
74074;SDS011;62428;51.412;5.432;2023-07-30T06:03:34;15.30;;;2.40;;
74074;SDS011;62428;51.412;5.432;2023-07-30T06:06:00;15.23;;;3.00;;
74074;SDS011;62428;51.412;5.432;2023-07-30T06:08:26;17.40;;;2.67;;
74074;SDS011;62428;51.412;5.432;2023-07-30T06:10:52;13.85;;;2.65;;
74074;SDS011;62428;51.412;5.432;2023-07-30T06:13:17;19.33;;;2.70;;
74074;SDS011;62428;51.412;5.432;2023-07-30T06:15:43;13.03;;;2.73;;
74074;SDS011;62428;51.412;5.432;2023-07-30T06:18:09;20.53;;;3.07;;
74074;SDS011;62428;51.412;5.432;2023-07-30T06:20:34;20.17;;;3.00;;
74074;SDS011;62428;51.412;5.432;2023-07-30T06:22:59;12.10;;;2.40;;
74074;SDS011;62428;51.412;5.432;2023-07-30T06:25:25;18.50;;;3.20;;
74074;SDS011;62428;51.412;5.432;2023-07-30T06:27:50;20.57;;;2.70;;
74074;SDS011;62428;51.412;5.432;2023-07-30T06:30:16;10.93;;;2.10;;
74074;SDS011;62428;51.412;5.432;2023-07-30T06:32:41;16.75;;;2.33;;
74074;SDS011;62428;51.412;5.432;2023-07-30T06:35:07;14.07;;;2.47;;
74074;SDS011;62428;51.412;5.432;2023-07-30T06:37:32;13.80;;;2.37;;
74074;SDS011;62428;51.412;5.432;2023-07-30T06:39:58;12.32;;;2.92;;
74074;SDS011;62428;51.412;5.432;2023-07-30T06:42:24;15.20;;;2.50;;
74074;SDS011;62428;51.412;5.432;2023-07-30T06:44:49;15.50;;;2.50;;
74074;SDS011;62428;51.412;5.432;2023-07-30T06:47:15;17.75;;;2.88;;
74074;SDS011;62428;51.412;5.432;2023-07-30T06:49:40;16.57;;;2.73;;
74074;SDS011;62428;51.412;5.432;2023-07-30T06:52:06;13.87;;;2.53;;
74074;SDS011;62428;51.412;5.432;2023-07-30T06:54:31;15.23;;;2.33;;
74074;SDS011;62428;51.412;5.432;2023-07-30T06:56:57;20.42;;;2.60;;
74074;SDS011;62428;51.412;5.432;2023-07-30T06:59:22;13.97;;;2.17;;
74074;SDS011;62428;51.412;5.432;2023-07-30T07:01:47;12.20;;;1.97;;
74074;SDS011;62428;51.412;5.432;2023-07-30T07:04:13;14.67;;;2.17;;
74074;SDS011;62428;51.412;5.432;2023-07-30T07:06:38;14.43;;;2.63;;
74074;SDS011;62428;51.412;5.432;2023-07-30T07:09:04;14.75;;;2.35;;
74074;SDS011;62428;51.412;5.432;2023-07-30T07:11:29;12.27;;;1.93;;
74074;SDS011;62428;51.412;5.432;2023-07-30T07:13:55;16.20;;;2.10;;
74074;SDS011;62428;51.412;5.432;2023-07-30T07:16:20;19.20;;;2.13;;
74074;SDS011;62428;51.412;5.432;2023-07-30T07:18:46;21.05;;;2.75;;
74074;SDS011;62428;51.412;5.432;2023-07-30T07:21:13;16.47;;;1.70;;
74074;SDS011;62428;51.412;5.432;2023-07-30T07:23:39;23.73;;;2.13;;
74074;SDS011;62428;51.412;5.432;2023-07-30T07:26:04;15.90;;;1.93;;
74074;SDS011;62428;51.412;5.432;2023-07-30T07:28:29;17.03;;;2.17;;
74074;SDS011;62428;51.412;5.432;2023-07-30T07:30:55;13.10;;;1.83;;
74074;SDS011;62428;51.412;5.432;2023-07-30T07:33:21;18.63;;;2.70;;
74074;SDS011;62428;51.412;5.432;2023-07-30T07:35:46;17.45;;;2.15;;
74074;SDS011;62428;51.412;5.432;2023-07-30T07:38:12;16.00;;;2.10;;
74074;SDS011;62428;51.412;5.432;2023-07-30T07:40:38;13.23;;;1.80;;
74074;SDS011;62428;51.412;5.432;2023-07-30T07:43:09;20.47;;;2.57;;
74074;SDS011;62428;51.412;5.432;2023-07-30T07:45:35;18.70;;;2.20;;
74074;SDS011;62428;51.412;5.432;2023-07-30T07:48:00;18.50;;;2.20;;
74074;SDS011;62428;51.412;5.432;2023-07-30T07:50:26;16.92;;;1.77;;
74074;SDS011;62428;51.412;5.432;2023-07-30T07:52:51;13.13;;;1.97;;
74074;SDS011;62428;51.412;5.432;2023-07-30T07:55:16;15.03;;;1.73;;
74074;SDS011;62428;51.412;5.432;2023-07-30T07:57:42;17.33;;;2.00;;
74074;SDS011;62428;51.412;5.432;2023-07-30T08:00:07;15.80;;;2.30;;
74074;SDS011;62428;51.412;5.432;2023-07-30T08:02:34;16.53;;;1.90;;
74074;SDS011;62428;51.412;5.432;2023-07-30T08:04:59;13.90;;;1.80;;
74074;SDS011;62428;51.412;5.432;2023-07-30T08:07:25;15.77;;;2.30;;
74074;SDS011;62428;51.412;5.432;2023-07-30T08:09:50;21.83;;;2.53;;
74074;SDS011;62428;51.412;5.432;2023-07-30T08:12:16;13.40;;;1.77;;
74074;SDS011;62428;51.412;5.432;2023-07-30T08:14:42;15.98;;;1.70;;
74074;SDS011;62428;51.412;5.432;2023-07-30T08:17:07;15.00;;;1.80;;
74074;SDS011;62428;51.412;5.432;2023-07-30T08:19:33;9.80;;;1.70;;
74074;SDS011;62428;51.412;5.432;2023-07-30T08:21:58;16.67;;;2.63;;
74074;SDS011;62428;51.412;5.432;2023-07-30T08:24:23;16.58;;;1.95;;
74074;SDS011;62428;51.412;5.432;2023-07-30T08:26:49;10.60;;;1.50;;
74074;SDS011;62428;51.412;5.432;2023-07-30T08:29:14;20.07;;;2.60;;
74074;SDS011;62428;51.412;5.432;2023-07-30T08:31:40;11.53;;;1.60;;
74074;SDS011;62428;51.412;5.432;2023-07-30T08:34:06;12.35;;;1.85;;
74074;SDS011;62428;51.412;5.432;2023-07-30T08:36:32;16.90;;;2.10;;
74074;SDS011;62428;51.412;5.432;2023-07-30T08:38:57;10.40;;;1.57;;
74074;SDS011;62428;51.412;5.432;2023-07-30T08:41:23;18.95;;;1.92;;
74074;SDS011;62428;51.412;5.432;2023-07-30T08:43:49;13.87;;;2.10;;
74074;SDS011;62428;51.412;5.432;2023-07-30T08:46:15;31.58;;;2.33;;
74074;SDS011;62428;51.412;5.432;2023-07-30T08:48:41;13.32;;;1.52;;
74074;SDS011;62428;51.412;5.432;2023-07-30T08:51:06;12.70;;;1.87;;
74074;SDS011;62428;51.412;5.432;2023-07-30T08:53:32;16.13;;;3.27;;
74074;SDS011;62428;51.412;5.432;2023-07-30T08:55:57;11.77;;;1.90;;
74074;SDS011;62428;51.412;5.432;2023-07-30T08:58:25;14.55;;;2.03;;
74074;SDS011;62428;51.412;5.432;2023-07-30T09:00:53;11.03;;;1.90;;
74074;SDS011;62428;51.412;5.432;2023-07-30T09:03:20;12.75;;;1.73;;
74074;SDS011;62428;51.412;5.432;2023-07-30T09:05:50;13.93;;;1.42;;
74074;SDS011;62428;51.412;5.432;2023-07-30T09:08:15;16.33;;;1.90;;
74074;SDS011;62428;51.412;5.432;2023-07-30T09:10:42;10.38;;;1.60;;
74074;SDS011;62428;51.412;5.432;2023-07-30T09:13:08;11.23;;;1.63;;
74074;SDS011;62428;51.412;5.432;2023-07-30T09:15:34;12.27;;;2.05;;
74074;SDS011;62428;51.412;5.432;2023-07-30T09:18:04;11.00;;;1.65;;
74074;SDS011;62428;51.412;5.432;2023-07-30T09:20:40;12.47;;;1.53;;
74074;SDS011;62428;51.412;5.432;2023-07-30T09:23:07;9.80;;;1.30;;
74074;SDS011;62428;51.412;5.432;2023-07-30T09:25:36;12.90;;;1.58;;
74074;SDS011;62428;51.412;5.432;2023-07-30T09:28:03;10.80;;;1.45;;
74074;SDS011;62428;51.412;5.432;2023-07-30T09:30:30;9.70;;;1.52;;
74074;SDS011;62428;51.412;5.432;2023-07-30T09:32:58;8.17;;;1.43;;
74074;SDS011;62428;51.412;5.432;2023-07-30T09:35:24;9.18;;;1.65;;
74074;SDS011;62428;51.412;5.432;2023-07-30T09:37:57;11.23;;;1.42;;
74074;SDS011;62428;51.412;5.432;2023-07-30T09:40:33;10.10;;;1.87;;
74074;SDS011;62428;51.412;5.432;2023-07-30T09:42:59;11.55;;;1.60;;
74074;SDS011;62428;51.412;5.432;2023-07-30T09:45:27;8.48;;;1.20;;
74074;SDS011;62428;51.412;5.432;2023-07-30T09:47:53;12.43;;;1.23;;
74074;SDS011;62428;51.412;5.432;2023-07-30T09:50:21;9.60;;;1.58;;
74074;SDS011;62428;51.412;5.432;2023-07-30T09:52:47;8.50;;;1.60;;
74074;SDS011;62428;51.412;5.432;2023-07-30T09:55:14;9.93;;;1.60;;
74074;SDS011;62428;51.412;5.432;2023-07-30T09:57:40;9.10;;;1.27;;
74074;SDS011;62428;51.412;5.432;2023-07-30T10:00:06;9.10;;;1.52;;
74074;SDS011;62428;51.412;5.432;2023-07-30T10:02:37;9.87;;;1.60;;
74074;SDS011;62428;51.412;5.432;2023-07-30T10:05:14;13.93;;;1.48;;
74074;SDS011;62428;51.412;5.432;2023-07-30T10:07:42;9.65;;;1.60;;
74074;SDS011;62428;51.412;5.432;2023-07-30T10:10:13;10.15;;;1.10;;
74074;SDS011;62428;51.412;5.432;2023-07-30T10:12:39;6.73;;;1.43;;
74074;SDS011;62428;51.412;5.432;2023-07-30T10:15:06;13.30;;;1.35;;
74074;SDS011;62428;51.412;5.432;2023-07-30T10:17:33;8.98;;;1.60;;
74074;SDS011;62428;51.412;5.432;2023-07-30T10:20:04;6.83;;;1.00;;
74074;SDS011;62428;51.412;5.432;2023-07-30T10:22:47;7.90;;;1.40;;
74074;SDS011;62428;51.412;5.432;2023-07-30T10:25:16;8.02;;;1.10;;
74074;SDS011;62428;51.412;5.432;2023-07-30T10:27:48;8.65;;;1.45;;
74074;SDS011;62428;51.412;5.432;2023-07-30T10:30:16;6.93;;;0.90;;
74074;SDS011;62428;51.412;5.432;2023-07-30T10:35:41;6.93;;;0.95;;
74074;SDS011;62428;51.412;5.432;2023-07-30T10:38:17;7.47;;;1.10;;
74074;SDS011;62428;51.412;5.432;2023-07-30T10:43:48;4.63;;;1.27;;
74074;SDS011;62428;51.412;5.432;2023-07-30T10:46:15;14.07;;;1.05;;
74074;SDS011;62428;51.412;5.432;2023-07-30T10:48:43;8.57;;;1.23;;
74074;SDS011;62428;51.412;5.432;2023-07-30T10:51:12;10.18;;;1.20;;
74074;SDS011;62428;51.412;5.432;2023-07-30T10:53:47;5.63;;;0.85;;
74074;SDS011;62428;51.412;5.432;2023-07-30T10:56:15;5.97;;;1.17;;
74074;SDS011;62428;51.412;5.432;2023-07-30T10:58:49;5.25;;;0.90;;
74074;SDS011;62428;51.412;5.432;2023-07-30T11:01:16;8.70;;;1.00;;
74074;SDS011;62428;51.412;5.432;2023-07-30T11:03:41;3.17;;;0.70;;
74074;SDS011;62428;51.412;5.432;2023-07-30T11:06:07;4.45;;;0.93;;
74074;SDS011;62428;51.412;5.432;2023-07-30T11:08:38;3.80;;;0.93;;
74074;SDS011;62428;51.412;5.432;2023-07-30T11:11:05;8.20;;;1.10;;
74074;SDS011;62428;51.412;5.432;2023-07-30T11:13:44;7.22;;;1.00;;
74074;SDS011;62428;51.412;5.432;2023-07-30T11:16:14;8.00;;;1.85;;
74074;SDS011;62428;51.412;5.432;2023-07-30T11:18:40;8.47;;;0.90;;
74074;SDS011;62428;51.412;5.432;2023-07-30T11:21:10;5.53;;;0.73;;
74074;SDS011;62428;51.412;5.432;2023-07-30T11:23:37;6.93;;;0.90;;
74074;SDS011;62428;51.412;5.432;2023-07-30T11:26:06;5.90;;;1.40;;
74074;SDS011;62428;51.412;5.432;2023-07-30T11:28:33;6.53;;;1.10;;
74074;SDS011;62428;51.412;5.432;2023-07-30T11:31:09;5.13;;;0.90;;
74074;SDS011;62428;51.412;5.432;2023-07-30T11:33:47;5.13;;;1.10;;
74074;SDS011;62428;51.412;5.432;2023-07-30T11:36:14;3.70;;;0.82;;
74074;SDS011;62428;51.412;5.432;2023-07-30T11:38:41;8.68;;;1.35;;
74074;SDS011;62428;51.412;5.432;2023-07-30T11:41:08;8.75;;;2.03;;
74074;SDS011;62428;51.412;5.432;2023-07-30T11:43:53;7.03;;;1.53;;
74074;SDS011;62428;51.412;5.432;2023-07-30T11:46:19;7.78;;;1.73;;
74074;SDS011;62428;51.412;5.432;2023-07-30T11:48:47;4.43;;;1.27;;
74074;SDS011;62428;51.412;5.432;2023-07-30T11:51:32;5.38;;;1.08;;
74074;SDS011;62428;51.412;5.432;2023-07-30T11:53:58;4.00;;;1.27;;
74074;SDS011;62428;51.412;5.432;2023-07-30T11:56:27;5.17;;;1.20;;
74074;SDS011;62428;51.412;5.432;2023-07-30T11:58:54;7.35;;;1.40;;
74074;SDS011;62428;51.412;5.432;2023-07-30T12:01:22;6.90;;;1.30;;
74074;SDS011;62428;51.412;5.432;2023-07-30T12:03:50;5.55;;;1.45;;
74074;SDS011;62428;51.412;5.432;2023-07-30T12:06:18;4.32;;;1.10;;
74074;SDS011;62428;51.412;5.432;2023-07-30T12:08:43;4.60;;;1.37;;
74074;SDS011;62428;51.412;5.432;2023-07-30T12:11:09;3.73;;;1.00;;
74074;SDS011;62428;51.412;5.432;2023-07-30T12:13:42;6.15;;;1.08;;
74074;SDS011;62428;51.412;5.432;2023-07-30T12:16:10;4.30;;;1.17;;
74074;SDS011;62428;51.412;5.432;2023-07-30T12:18:37;4.28;;;1.00;;
74074;SDS011;62428;51.412;5.432;2023-07-30T12:21:03;7.20;;;1.30;;
74074;SDS011;62428;51.412;5.432;2023-07-30T12:23:31;7.60;;;1.33;;
74074;SDS011;62428;51.412;5.432;2023-07-30T12:25:57;8.13;;;1.17;;
74074;SDS011;62428;51.412;5.432;2023-07-30T12:28:22;3.90;;;0.93;;
74074;SDS011;62428;51.412;5.432;2023-07-30T12:30:48;3.57;;;1.40;;
74074;SDS011;62428;51.412;5.432;2023-07-30T12:33:13;5.68;;;1.15;;
74074;SDS011;62428;51.412;5.432;2023-07-30T12:35:38;3.27;;;1.00;;
74074;SDS011;62428;51.412;5.432;2023-07-30T12:38:04;8.83;;;1.60;;
74074;SDS011;62428;51.412;5.432;2023-07-30T12:40:29;7.57;;;1.43;;
74074;SDS011;62428;51.412;5.432;2023-07-30T12:42:59;5.40;;;1.50;;
74074;SDS011;62428;51.412;5.432;2023-07-30T12:45:25;4.22;;;1.10;;
74074;SDS011;62428;51.412;5.432;2023-07-30T12:47:51;4.97;;;1.23;;
74074;SDS011;62428;51.412;5.432;2023-07-30T12:50:16;9.00;;;1.33;;
74074;SDS011;62428;51.412;5.432;2023-07-30T12:52:41;3.83;;;0.90;;
74074;SDS011;62428;51.412;5.432;2023-07-30T12:55:07;4.60;;;0.80;;
74074;SDS011;62428;51.412;5.432;2023-07-30T12:57:32;6.13;;;1.10;;
74074;SDS011;62428;51.412;5.432;2023-07-30T12:59:58;3.07;;;0.90;;
74074;SDS011;62428;51.412;5.432;2023-07-30T13:02:23;2.13;;;0.67;;
74074;SDS011;62428;51.412;5.432;2023-07-30T13:04:49;8.03;;;1.43;;
74074;SDS011;62428;51.412;5.432;2023-07-30T13:07:14;7.03;;;1.10;;
74074;SDS011;62428;51.412;5.432;2023-07-30T13:09:40;4.77;;;0.70;;
74074;SDS011;62428;51.412;5.432;2023-07-30T13:12:05;4.87;;;1.00;;
74074;SDS011;62428;51.412;5.432;2023-07-30T13:14:31;4.57;;;0.82;;
74074;SDS011;62428;51.412;5.432;2023-07-30T13:16:56;3.03;;;0.77;;
74074;SDS011;62428;51.412;5.432;2023-07-30T13:19:22;4.40;;;0.80;;
74074;SDS011;62428;51.412;5.432;2023-07-30T13:21:47;1.87;;;0.70;;
74074;SDS011;62428;51.412;5.432;2023-07-30T13:24:12;6.23;;;0.90;;
74074;SDS011;62428;51.412;5.432;2023-07-30T13:26:38;5.17;;;0.83;;
74074;SDS011;62428;51.412;5.432;2023-07-30T13:29:03;5.30;;;1.20;;
74074;SDS011;62428;51.412;5.432;2023-07-30T13:31:29;5.97;;;0.80;;
74074;SDS011;62428;51.412;5.432;2023-07-30T13:33:55;5.07;;;0.65;;
74074;SDS011;62428;51.412;5.432;2023-07-30T13:36:20;3.27;;;0.87;;
74074;SDS011;62428;51.412;5.432;2023-07-30T13:38:46;1.90;;;0.67;;
74074;SDS011;62428;51.412;5.432;2023-07-30T13:41:11;3.87;;;0.60;;
74074;SDS011;62428;51.412;5.432;2023-07-30T13:43:36;2.83;;;0.73;;
74074;SDS011;62428;51.412;5.432;2023-07-30T13:46:02;5.23;;;1.00;;
74074;SDS011;62428;51.412;5.432;2023-07-30T13:48:27;10.73;;;0.97;;
74074;SDS011;62428;51.412;5.432;2023-07-30T13:50:53;11.38;;;0.68;;
74074;SDS011;62428;51.412;5.432;2023-07-30T13:53:18;4.33;;;0.93;;
74074;SDS011;62428;51.412;5.432;2023-07-30T13:55:44;3.95;;;0.68;;
74074;SDS011;62428;51.412;5.432;2023-07-30T13:58:10;5.20;;;0.83;;
74074;SDS011;62428;51.412;5.432;2023-07-30T14:00:35;6.57;;;1.27;;
74074;SDS011;62428;51.412;5.432;2023-07-30T14:03:01;4.30;;;1.20;;
74074;SDS011;62428;51.412;5.432;2023-07-30T14:05:26;7.57;;;1.00;;
74074;SDS011;62428;51.412;5.432;2023-07-30T14:07:53;3.72;;;1.02;;
74074;SDS011;62428;51.412;5.432;2023-07-30T14:10:21;4.23;;;0.73;;
74074;SDS011;62428;51.412;5.432;2023-07-30T14:12:47;7.05;;;0.90;;
74074;SDS011;62428;51.412;5.432;2023-07-30T14:15:12;8.13;;;0.87;;
74074;SDS011;62428;51.412;5.432;2023-07-30T14:17:38;8.80;;;1.00;;
74074;SDS011;62428;51.412;5.432;2023-07-30T14:20:03;5.93;;;0.85;;
74074;SDS011;62428;51.412;5.432;2023-07-30T14:22:29;6.50;;;0.90;;
74074;SDS011;62428;51.412;5.432;2023-07-30T14:24:54;4.73;;;0.80;;
74074;SDS011;62428;51.412;5.432;2023-07-30T14:27:20;8.30;;;0.90;;
74074;SDS011;62428;51.412;5.432;2023-07-30T14:29:45;7.10;;;0.73;;
74074;SDS011;62428;51.412;5.432;2023-07-30T14:32:11;6.50;;;1.10;;
74074;SDS011;62428;51.412;5.432;2023-07-30T14:34:36;5.13;;;0.70;;
74074;SDS011;62428;51.412;5.432;2023-07-30T14:37:01;5.23;;;1.00;;
74074;SDS011;62428;51.412;5.432;2023-07-30T14:39:27;4.28;;;0.82;;
74074;SDS011;62428;51.412;5.432;2023-07-30T14:41:52;8.73;;;1.20;;
74074;SDS011;62428;51.412;5.432;2023-07-30T14:44:18;5.00;;;1.00;;